sensor_id;sensor_type;location;lat;lon;timestamp;pressure;altitude;pressure_sealevel;temperature;humidity
41250;BME280;26984;59.928;30.306;2023-04-30T00:00:32;101240.91;;;8.44;55.49
41250;BME280;26984;59.928;30.306;2023-04-30T00:03:01;101242.81;;;8.21;54.54
41250;BME280;26984;59.928;30.306;2023-04-30T00:05:30;101247.81;;;8.24;54.66
41250;BME280;26984;59.928;30.306;2023-04-30T00:07:58;101241.72;;;8.15;54.23
41250;BME280;26984;59.928;30.306;2023-04-30T00:10:26;101236.16;;;8.16;53.89
41250;BME280;26984;59.928;30.306;2023-04-30T00:12:54;101234.31;;;8.17;54.09
41250;BME280;26984;59.928;30.306;2023-04-30T00:15:22;101227.19;;;8.24;54.06
41250;BME280;26984;59.928;30.306;2023-04-30T00:17:50;101221.19;;;8.22;53.98
41250;BME280;26984;59.928;30.306;2023-04-30T00:20:18;101210.91;;;8.26;53.94
41250;BME280;26984;59.928;30.306;2023-04-30T00:22:47;101208.38;;;8.24;53.42
41250;BME280;26984;59.928;30.306;2023-04-30T00:25:15;101201.81;;;8.27;53.82
41250;BME280;26984;59.928;30.306;2023-04-30T00:27:43;101177.47;;;8.28;52.97
41250;BME280;26984;59.928;30.306;2023-04-30T00:30:11;101192.56;;;8.29;54.19
41250;BME280;26984;59.928;30.306;2023-04-30T00:32:40;101187.00;;;8.31;53.50
41250;BME280;26984;59.928;30.306;2023-04-30T00:35:08;101178.94;;;8.31;54.24
41250;BME280;26984;59.928;30.306;2023-04-30T00:37:36;101181.38;;;8.26;54.04
41250;BME280;26984;59.928;30.306;2023-04-30T00:40:07;101174.41;;;8.31;54.01
41250;BME280;26984;59.928;30.306;2023-04-30T00:42:35;101166.34;;;8.31;54.13
41250;BME280;26984;59.928;30.306;2023-04-30T00:45:04;101163.78;;;8.38;54.17
41250;BME280;26984;59.928;30.306;2023-04-30T00:47:32;101171.16;;;8.36;53.55
41250;BME280;26984;59.928;30.306;2023-04-30T00:50:00;101154.69;;;8.39;53.42
41250;BME280;26984;59.928;30.306;2023-04-30T00:52:28;101158.41;;;8.38;52.75
41250;BME280;26984;59.928;30.306;2023-04-30T00:54:56;101150.78;;;8.78;52.92
41250;BME280;26984;59.928;30.306;2023-04-30T00:57:25;101146.66;;;8.60;52.74
41250;BME280;26984;59.928;30.306;2023-04-30T00:59:54;101130.06;;;8.50;51.82
41250;BME280;26984;59.928;30.306;2023-04-30T01:02:22;101134.94;;;8.83;52.83
41250;BME280;26984;59.928;30.306;2023-04-30T01:04:51;101123.66;;;8.51;51.96
41250;BME280;26984;59.928;30.306;2023-04-30T01:07:19;101123.00;;;8.49;52.30
41250;BME280;26984;59.928;30.306;2023-04-30T01:09:47;101117.84;;;8.48;52.61
41250;BME280;26984;59.928;30.306;2023-04-30T01:12:16;101119.31;;;8.72;52.43
41250;BME280;26984;59.928;30.306;2023-04-30T01:14:56;101117.25;;;8.52;53.02
41250;BME280;26984;59.928;30.306;2023-04-30T01:17:32;101109.59;;;8.49;52.37
41250;BME280;26984;59.928;30.306;2023-04-30T01:20:01;101103.38;;;8.49;52.77
41250;BME280;26984;59.928;30.306;2023-04-30T01:22:34;101096.22;;;8.56;52.59
41250;BME280;26984;59.928;30.306;2023-04-30T01:25:18;101090.28;;;8.60;53.02
41250;BME280;26984;59.928;30.306;2023-04-30T01:28:08;101084.53;;;8.63;52.94
41250;BME280;26984;59.928;30.306;2023-04-30T01:30:38;101079.03;;;8.50;52.96
41250;BME280;26984;59.928;30.306;2023-04-30T01:33:07;101078.00;;;8.51;52.94
41250;BME280;26984;59.928;30.306;2023-04-30T01:36:06;101076.91;;;8.67;52.61
41250;BME280;26984;59.928;30.306;2023-04-30T01:38:54;101070.72;;;8.67;53.12
41250;BME280;26984;59.928;30.306;2023-04-30T01:41:29;101049.09;;;8.53;52.63
41250;BME280;26984;59.928;30.306;2023-04-30T01:44:11;101062.28;;;8.70;53.29
41250;BME280;26984;59.928;30.306;2023-04-30T01:46:40;101059.97;;;8.67;52.56
41250;BME280;26984;59.928;30.306;2023-04-30T01:49:18;101051.31;;;8.71;52.80
41250;BME280;26984;59.928;30.306;2023-04-30T01:51:59;101044.28;;;8.70;53.30
41250;BME280;26984;59.928;30.306;2023-04-30T01:54:32;101034.97;;;8.66;53.09
41250;BME280;26984;59.928;30.306;2023-04-30T01:57:05;101028.72;;;8.59;52.83
41250;BME280;26984;59.928;30.306;2023-04-30T01:59:37;101027.88;;;8.58;53.19
41250;BME280;26984;59.928;30.306;2023-04-30T02:02:06;101022.25;;;8.53;53.36
41250;BME280;26984;59.928;30.306;2023-04-30T02:04:33;101018.78;;;8.59;53.42
41250;BME280;26984;59.928;30.306;2023-04-30T02:07:03;101012.66;;;8.66;53.57
41250;BME280;26984;59.928;30.306;2023-04-30T02:09:31;101002.34;;;8.97;52.79
41250;BME280;26984;59.928;30.306;2023-04-30T02:11:59;101004.22;;;8.69;53.52
41250;BME280;26984;59.928;30.306;2023-04-30T02:14:26;101004.16;;;8.62;54.12
41250;BME280;26984;59.928;30.306;2023-04-30T02:16:56;100998.41;;;8.65;54.07
41250;BME280;26984;59.928;30.306;2023-04-30T02:19:24;100993.19;;;8.63;54.98
41250;BME280;26984;59.928;30.306;2023-04-30T02:21:53;100985.97;;;8.64;54.77
41250;BME280;26984;59.928;30.306;2023-04-30T02:24:21;100978.19;;;8.69;55.07
41250;BME280;26984;59.928;30.306;2023-04-30T02:26:48;100968.47;;;8.75;54.50
41250;BME280;26984;59.928;30.306;2023-04-30T02:29:17;100973.91;;;8.81;55.36
41250;BME280;26984;59.928;30.306;2023-04-30T02:31:45;100947.59;;;8.70;55.51
41250;BME280;26984;59.928;30.306;2023-04-30T02:34:14;100962.53;;;8.79;55.66
41250;BME280;26984;59.928;30.306;2023-04-30T02:36:42;100962.09;;;8.76;55.19
41250;BME280;26984;59.928;30.306;2023-04-30T02:39:10;100973.13;;;8.87;56.52
41250;BME280;26984;59.928;30.306;2023-04-30T02:41:38;100962.22;;;8.96;55.56
41250;BME280;26984;59.928;30.306;2023-04-30T02:44:05;100964.28;;;8.94;56.33
41250;BME280;26984;59.928;30.306;2023-04-30T02:46:34;100958.47;;;8.90;56.70
41250;BME280;26984;59.928;30.306;2023-04-30T02:49:02;100957.88;;;8.95;56.03
41250;BME280;26984;59.928;30.306;2023-04-30T02:51:31;100947.34;;;8.93;56.41
41250;BME280;26984;59.928;30.306;2023-04-30T02:53:59;100945.66;;;8.92;56.80
41250;BME280;26984;59.928;30.306;2023-04-30T02:56:27;100945.22;;;8.88;56.85
41250;BME280;26984;59.928;30.306;2023-04-30T02:58:55;100946.06;;;8.89;57.28
41250;BME280;26984;59.928;30.306;2023-04-30T03:01:23;100942.75;;;8.87;57.29
41250;BME280;26984;59.928;30.306;2023-04-30T03:03:50;100946.06;;;8.89;57.96
41250;BME280;26984;59.928;30.306;2023-04-30T03:06:18;100935.94;;;8.91;57.74
41250;BME280;26984;59.928;30.306;2023-04-30T03:08:48;100939.09;;;9.01;56.94
41250;BME280;26984;59.928;30.306;2023-04-30T03:11:16;100924.03;;;9.07;56.60
41250;BME280;26984;59.928;30.306;2023-04-30T03:13:44;100925.53;;;9.16;56.58
41250;BME280;26984;59.928;30.306;2023-04-30T03:16:12;100925.31;;;9.18;56.07
41250;BME280;26984;59.928;30.306;2023-04-30T03:18:40;100919.34;;;9.16;56.58
41250;BME280;26984;59.928;30.306;2023-04-30T03:21:07;100916.03;;;9.20;56.70
41250;BME280;26984;59.928;30.306;2023-04-30T03:23:36;100918.72;;;9.20;55.78
41250;BME280;26984;59.928;30.306;2023-04-30T03:26:05;100910.16;;;9.51;55.87
41250;BME280;26984;59.928;30.306;2023-04-30T03:28:33;100913.59;;;9.32;55.55
41250;BME280;26984;59.928;30.306;2023-04-30T03:31:01;100920.84;;;9.31;55.38
41250;BME280;26984;59.928;30.306;2023-04-30T03:33:31;100909.25;;;9.31;55.04
41250;BME280;26984;59.928;30.306;2023-04-30T03:35:59;100911.22;;;9.57;55.18
41250;BME280;26984;59.928;30.306;2023-04-30T03:38:26;100891.69;;;9.35;54.91
41250;BME280;26984;59.928;30.306;2023-04-30T03:40:54;100897.88;;;9.35;54.80
41250;BME280;26984;59.928;30.306;2023-04-30T03:43:24;100897.50;;;9.39;54.86
41250;BME280;26984;59.928;30.306;2023-04-30T03:45:51;100892.94;;;9.39;54.35
41250;BME280;26984;59.928;30.306;2023-04-30T03:48:19;100888.59;;;9.38;54.84
41250;BME280;26984;59.928;30.306;2023-04-30T03:50:47;100872.69;;;9.43;54.89
41250;BME280;26984;59.928;30.306;2023-04-30T03:53:15;100865.25;;;9.45;54.45
41250;BME280;26984;59.928;30.306;2023-04-30T03:55:44;100858.22;;;9.51;53.54
41250;BME280;26984;59.928;30.306;2023-04-30T03:58:12;100857.22;;;9.58;53.51
41250;BME280;26984;59.928;30.306;2023-04-30T04:00:43;100856.81;;;9.62;53.18
41250;BME280;26984;59.928;30.306;2023-04-30T04:03:13;100835.28;;;9.68;53.54
41250;BME280;26984;59.928;30.306;2023-04-30T04:05:42;100838.00;;;9.75;53.43
41250;BME280;26984;59.928;30.306;2023-04-30T04:08:09;100831.38;;;9.84;52.54
41250;BME280;26984;59.928;30.306;2023-04-30T04:10:37;100816.25;;;9.83;53.04
41250;BME280;26984;59.928;30.306;2023-04-30T04:13:06;100828.91;;;9.89;52.58
41250;BME280;26984;59.928;30.306;2023-04-30T04:15:34;100838.63;;;9.90;52.36
41250;BME280;26984;59.928;30.306;2023-04-30T04:18:04;100826.59;;;9.99;52.53
41250;BME280;26984;59.928;30.306;2023-04-30T04:20:34;100825.56;;;9.94;52.38
41250;BME280;26984;59.928;30.306;2023-04-30T04:23:02;100814.00;;;10.00;52.10
41250;BME280;26984;59.928;30.306;2023-04-30T04:25:31;100823.72;;;10.01;52.87
41250;BME280;26984;59.928;30.306;2023-04-30T04:27:59;100818.75;;;10.11;51.81
41250;BME280;26984;59.928;30.306;2023-04-30T04:30:27;100809.84;;;10.11;52.36
41250;BME280;26984;59.928;30.306;2023-04-30T04:32:55;100820.38;;;10.19;51.90
41250;BME280;26984;59.928;30.306;2023-04-30T04:35:25;100815.00;;;10.32;51.36
41250;BME280;26984;59.928;30.306;2023-04-30T04:37:53;100808.34;;;10.35;51.11
41250;BME280;26984;59.928;30.306;2023-04-30T04:40:22;100813.75;;;10.35;51.27
41250;BME280;26984;59.928;30.306;2023-04-30T04:42:50;100812.91;;;10.34;51.31
41250;BME280;26984;59.928;30.306;2023-04-30T04:45:18;100807.25;;;10.69;50.85
41250;BME280;26984;59.928;30.306;2023-04-30T04:47:47;100804.94;;;10.79;50.49
41250;BME280;26984;59.928;30.306;2023-04-30T04:50:16;100802.31;;;10.52;50.72
41250;BME280;26984;59.928;30.306;2023-04-30T04:52:46;100812.06;;;10.53;50.26
41250;BME280;26984;59.928;30.306;2023-04-30T04:55:13;100805.41;;;10.56;50.73
41250;BME280;26984;59.928;30.306;2023-04-30T04:57:43;100815.38;;;10.49;50.66
41250;BME280;26984;59.928;30.306;2023-04-30T05:00:11;100802.50;;;10.58;51.19
41250;BME280;26984;59.928;30.306;2023-04-30T05:02:39;100806.59;;;10.67;50.16
41250;BME280;26984;59.928;30.306;2023-04-30T05:05:08;100802.03;;;10.74;49.56
41250;BME280;26984;59.928;30.306;2023-04-30T05:07:36;100803.69;;;10.75;49.96
41250;BME280;26984;59.928;30.306;2023-04-30T05:10:07;100803.22;;;10.85;49.67
41250;BME280;26984;59.928;30.306;2023-04-30T05:12:35;100797.91;;;10.71;49.94
41250;BME280;26984;59.928;30.306;2023-04-30T05:15:03;100798.34;;;10.68;49.99
41250;BME280;26984;59.928;30.306;2023-04-30T05:17:31;100799.56;;;10.72;50.20
41250;BME280;26984;59.928;30.306;2023-04-30T05:19:59;100811.97;;;10.80;50.05
41250;BME280;26984;59.928;30.306;2023-04-30T05:22:27;100811.53;;;10.83;50.06
41250;BME280;26984;59.928;30.306;2023-04-30T05:24:55;100796.56;;;10.94;50.03
41250;BME280;26984;59.928;30.306;2023-04-30T05:27:24;100793.84;;;11.00;49.65
41250;BME280;26984;59.928;30.306;2023-04-30T05:29:53;100782.63;;;11.03;49.32
41250;BME280;26984;59.928;30.306;2023-04-30T05:32:21;100780.53;;;11.06;49.12
41250;BME280;26984;59.928;30.306;2023-04-30T05:34:49;100767.03;;;11.06;48.88
41250;BME280;26984;59.928;30.306;2023-04-30T05:37:17;100767.44;;;11.09;48.68
41250;BME280;26984;59.928;30.306;2023-04-30T05:39:46;100761.97;;;11.22;48.30
41250;BME280;26984;59.928;30.306;2023-04-30T05:42:13;100761.66;;;11.37;48.03
41250;BME280;26984;59.928;30.306;2023-04-30T05:44:43;100784.84;;;11.45;47.75
41250;BME280;26984;59.928;30.306;2023-04-30T05:47:10;100791.38;;;11.62;47.47
41250;BME280;26984;59.928;30.306;2023-04-30T05:49:38;100790.88;;;11.72;47.15
41250;BME280;26984;59.928;30.306;2023-04-30T05:52:06;100769.25;;;11.79;47.02
41250;BME280;26984;59.928;30.306;2023-04-30T05:54:34;100761.31;;;11.84;46.66
41250;BME280;26984;59.928;30.306;2023-04-30T05:57:02;100765.16;;;11.94;46.67
41250;BME280;26984;59.928;30.306;2023-04-30T05:59:29;100762.59;;;12.25;46.38
41250;BME280;26984;59.928;30.306;2023-04-30T06:01:59;100766.88;;;12.14;46.47
41250;BME280;26984;59.928;30.306;2023-04-30T06:04:27;100758.78;;;12.14;46.76
41250;BME280;26984;59.928;30.306;2023-04-30T06:06:55;100755.00;;;12.15;46.26
41250;BME280;26984;59.928;30.306;2023-04-30T06:09:23;100760.34;;;12.21;46.51
41250;BME280;26984;59.928;30.306;2023-04-30T06:11:50;100773.63;;;12.60;46.33
41250;BME280;26984;59.928;30.306;2023-04-30T06:14:21;100774.53;;;12.54;45.82
41250;BME280;26984;59.928;30.306;2023-04-30T06:16:49;100782.19;;;12.75;45.82
41250;BME280;26984;59.928;30.306;2023-04-30T06:19:18;100776.03;;;13.16;45.25
41250;BME280;26984;59.928;30.306;2023-04-30T06:21:46;100775.38;;;13.03;45.19
41250;BME280;26984;59.928;30.306;2023-04-30T06:24:14;100773.34;;;12.98;44.57
41250;BME280;26984;59.928;30.306;2023-04-30T06:26:41;100789.41;;;13.11;44.75
41250;BME280;26984;59.928;30.306;2023-04-30T06:29:09;100788.09;;;13.32;44.22
41250;BME280;26984;59.928;30.306;2023-04-30T06:31:37;100779.44;;;13.54;43.71
41250;BME280;26984;59.928;30.306;2023-04-30T06:34:05;100763.94;;;13.73;42.85
41250;BME280;26984;59.928;30.306;2023-04-30T06:36:34;100747.22;;;13.76;42.43
41250;BME280;26984;59.928;30.306;2023-04-30T06:39:02;100765.13;;;14.12;42.20
41250;BME280;26984;59.928;30.306;2023-04-30T06:41:30;100756.88;;;14.19;41.63
41250;BME280;26984;59.928;30.306;2023-04-30T06:43:58;100765.97;;;14.12;41.01
41250;BME280;26984;59.928;30.306;2023-04-30T06:46:26;100760.19;;;13.97;41.46
41250;BME280;26984;59.928;30.306;2023-04-30T06:48:54;100761.25;;;13.84;41.43
41250;BME280;26984;59.928;30.306;2023-04-30T06:51:22;100769.13;;;13.74;41.93
41250;BME280;26984;59.928;30.306;2023-04-30T06:53:51;100779.25;;;13.67;41.82
41250;BME280;26984;59.928;30.306;2023-04-30T06:56:19;100768.06;;;13.63;41.95
41250;BME280;26984;59.928;30.306;2023-04-30T06:58:47;100773.47;;;13.63;42.41
41250;BME280;26984;59.928;30.306;2023-04-30T07:01:15;100777.81;;;13.76;42.01
41250;BME280;26984;59.928;30.306;2023-04-30T07:03:43;100779.38;;;14.07;41.63
41250;BME280;26984;59.928;30.306;2023-04-30T07:06:10;100773.84;;;14.14;41.30
41250;BME280;26984;59.928;30.306;2023-04-30T07:08:38;100772.19;;;14.01;41.87
41250;BME280;26984;59.928;30.306;2023-04-30T07:11:08;100760.44;;;13.84;42.25
41250;BME280;26984;59.928;30.306;2023-04-30T07:13:36;100764.84;;;13.55;42.51
41250;BME280;26984;59.928;30.306;2023-04-30T07:16:05;100760.78;;;13.34;42.93
41250;BME280;26984;59.928;30.306;2023-04-30T07:18:35;100770.06;;;13.26;43.38
41250;BME280;26984;59.928;30.306;2023-04-30T07:21:03;100769.91;;;13.21;43.92
41250;BME280;26984;59.928;30.306;2023-04-30T07:23:30;100779.00;;;13.27;43.96
41250;BME280;26984;59.928;30.306;2023-04-30T07:25:58;100778.16;;;12.96;44.38
41250;BME280;26984;59.928;30.306;2023-04-30T07:28:28;100780.47;;;12.81;44.89
41250;BME280;26984;59.928;30.306;2023-04-30T07:30:56;100781.50;;;12.80;45.38
41250;BME280;26984;59.928;30.306;2023-04-30T07:33:24;100786.41;;;12.53;47.96
41250;BME280;26984;59.928;30.306;2023-04-30T07:35:52;100791.25;;;12.62;48.02
41250;BME280;26984;59.928;30.306;2023-04-30T07:38:21;100791.50;;;12.42;47.90
41250;BME280;26984;59.928;30.306;2023-04-30T07:40:49;100793.66;;;12.34;49.41
41250;BME280;26984;59.928;30.306;2023-04-30T07:43:17;100795.78;;;12.50;48.80
41250;BME280;26984;59.928;30.306;2023-04-30T07:45:46;100794.06;;;12.74;48.09
41250;BME280;26984;59.928;30.306;2023-04-30T07:48:15;100798.63;;;12.92;48.41
41250;BME280;26984;59.928;30.306;2023-04-30T07:50:43;100792.38;;;13.22;49.80
41250;BME280;26984;59.928;30.306;2023-04-30T07:53:13;100794.31;;;13.03;49.80
41250;BME280;26984;59.928;30.306;2023-04-30T07:55:41;100792.63;;;13.02;48.88
41250;BME280;26984;59.928;30.306;2023-04-30T07:58:09;100805.28;;;13.19;48.82
41250;BME280;26984;59.928;30.306;2023-04-30T08:00:37;100807.63;;;12.86;49.44
41250;BME280;26984;59.928;30.306;2023-04-30T08:03:06;100800.66;;;12.78;49.83
41250;BME280;26984;59.928;30.306;2023-04-30T08:05:34;100794.50;;;12.71;50.76
41250;BME280;26984;59.928;30.306;2023-04-30T08:08:03;100801.56;;;12.54;51.34
41250;BME280;26984;59.928;30.306;2023-04-30T08:10:31;100807.84;;;12.29;52.29
41250;BME280;26984;59.928;30.306;2023-04-30T08:12:58;100810.72;;;12.53;51.98
41250;BME280;26984;59.928;30.306;2023-04-30T08:15:26;100807.91;;;12.41;53.29
41250;BME280;26984;59.928;30.306;2023-04-30T08:17:54;100813.38;;;11.91;55.56
41250;BME280;26984;59.928;30.306;2023-04-30T08:20:23;100818.25;;;11.75;56.83
41250;BME280;26984;59.928;30.306;2023-04-30T08:22:51;100820.34;;;11.42;59.26
41250;BME280;26984;59.928;30.306;2023-04-30T08:25:19;100825.31;;;11.45;60.75
41250;BME280;26984;59.928;30.306;2023-04-30T08:27:47;100811.41;;;11.10;63.68
41250;BME280;26984;59.928;30.306;2023-04-30T08:30:15;100818.97;;;10.88;66.39
41250;BME280;26984;59.928;30.306;2023-04-30T08:32:43;100826.09;;;10.69;68.96
41250;BME280;26984;59.928;30.306;2023-04-30T08:35:10;100828.34;;;10.78;69.76
41250;BME280;26984;59.928;30.306;2023-04-30T08:37:40;100827.56;;;10.71;73.06
41250;BME280;26984;59.928;30.306;2023-04-30T08:40:08;100837.53;;;10.64;75.48
41250;BME280;26984;59.928;30.306;2023-04-30T08:42:40;100851.44;;;10.48;79.39
41250;BME280;26984;59.928;30.306;2023-04-30T08:45:11;100850.84;;;10.46;82.50
41250;BME280;26984;59.928;30.306;2023-04-30T08:47:40;100859.53;;;10.28;86.97
41250;BME280;26984;59.928;30.306;2023-04-30T08:50:08;100861.63;;;10.26;90.58
41250;BME280;26984;59.928;30.306;2023-04-30T08:52:38;100865.31;;;10.25;94.74
41250;BME280;26984;59.928;30.306;2023-04-30T08:55:08;100875.47;;;10.16;97.92
41250;BME280;26984;59.928;30.306;2023-04-30T08:57:37;100867.38;;;10.03;96.96
41250;BME280;26984;59.928;30.306;2023-04-30T09:00:06;100869.88;;;9.98;98.44
41250;BME280;26984;59.928;30.306;2023-04-30T09:02:38;100888.72;;;9.91;100.00
41250;BME280;26984;59.928;30.306;2023-04-30T09:05:09;100895.75;;;9.86;100.00
41250;BME280;26984;59.928;30.306;2023-04-30T09:07:39;100887.44;;;9.74;100.00
41250;BME280;26984;59.928;30.306;2023-04-30T09:10:15;100900.88;;;9.61;100.00
41250;BME280;26984;59.928;30.306;2023-04-30T09:12:43;100894.00;;;9.45;100.00
41250;BME280;26984;59.928;30.306;2023-04-30T09:15:12;100902.00;;;9.31;100.00
41250;BME280;26984;59.928;30.306;2023-04-30T09:17:40;100903.28;;;9.29;100.00
41250;BME280;26984;59.928;30.306;2023-04-30T09:20:09;100913.59;;;9.32;100.00
41250;BME280;26984;59.928;30.306;2023-04-30T09:22:38;100917.06;;;9.19;100.00
41250;BME280;26984;59.928;30.306;2023-04-30T09:25:08;100912.53;;;9.20;100.00
41250;BME280;26984;59.928;30.306;2023-04-30T09:27:38;100911.88;;;9.18;100.00
41250;BME280;26984;59.928;30.306;2023-04-30T09:30:07;100917.88;;;9.13;100.00
41250;BME280;26984;59.928;30.306;2023-04-30T09:32:35;100917.78;;;9.00;100.00
41250;BME280;26984;59.928;30.306;2023-04-30T09:35:28;100912.47;;;9.06;100.00
41250;BME280;26984;59.928;30.306;2023-04-30T09:37:58;100917.78;;;8.93;100.00
41250;BME280;26984;59.928;30.306;2023-04-30T09:40:37;100911.56;;;8.93;100.00
41250;BME280;26984;59.928;30.306;2023-04-30T09:43:08;100918.75;;;8.85;100.00
41250;BME280;26984;59.928;30.306;2023-04-30T09:45:40;100909.47;;;8.88;100.00
41250;BME280;26984;59.928;30.306;2023-04-30T09:48:09;100913.41;;;8.92;100.00
41250;BME280;26984;59.928;30.306;2023-04-30T09:50:37;100918.31;;;8.82;100.00
41250;BME280;26984;59.928;30.306;2023-04-30T09:53:07;100912.78;;;8.55;100.00
41250;BME280;26984;59.928;30.306;2023-04-30T09:55:35;100919.47;;;8.66;100.00
41250;BME280;26984;59.928;30.306;2023-04-30T09:58:05;100938.06;;;8.68;100.00
41250;BME280;26984;59.928;30.306;2023-04-30T10:00:35;100934.16;;;8.70;100.00
41250;BME280;26984;59.928;30.306;2023-04-30T10:03:05;100928.13;;;8.61;100.00
41250;BME280;26984;59.928;30.306;2023-04-30T10:05:40;100935.00;;;8.71;100.00
41250;BME280;26984;59.928;30.306;2023-04-30T10:08:12;100940.56;;;8.69;100.00
41250;BME280;26984;59.928;30.306;2023-04-30T10:10:45;100931.47;;;8.70;100.00
41250;BME280;26984;59.928;30.306;2023-04-30T10:13:17;100921.34;;;8.66;100.00
41250;BME280;26984;59.928;30.306;2023-04-30T10:15:49;100935.25;;;8.76;100.00
41250;BME280;26984;59.928;30.306;2023-04-30T10:18:20;100941.84;;;8.73;100.00
41250;BME280;26984;59.928;30.306;2023-04-30T10:20:53;100932.94;;;8.73;100.00
41250;BME280;26984;59.928;30.306;2023-04-30T10:23:21;100943.75;;;8.79;100.00
41250;BME280;26984;59.928;30.306;2023-04-30T10:25:50;100945.19;;;8.82;100.00
41250;BME280;26984;59.928;30.306;2023-04-30T10:28:18;100940.44;;;8.84;100.00
41250;BME280;26984;59.928;30.306;2023-04-30T10:30:49;100939.97;;;8.74;100.00
41250;BME280;26984;59.928;30.306;2023-04-30T10:33:22;100946.00;;;8.76;100.00
41250;BME280;26984;59.928;30.306;2023-04-30T10:35:56;100947.53;;;8.92;100.00
41250;BME280;26984;59.928;30.306;2023-04-30T10:38:29;100943.75;;;8.79;100.00
41250;BME280;26984;59.928;30.306;2023-04-30T10:40:58;100930.00;;;8.61;100.00
41250;BME280;26984;59.928;30.306;2023-04-30T10:43:29;100938.56;;;8.50;100.00
41250;BME280;26984;59.928;30.306;2023-04-30T10:45:59;100949.72;;;8.47;100.00
41250;BME280;26984;59.928;30.306;2023-04-30T10:48:32;100943.25;;;8.41;100.00
41250;BME280;26984;59.928;30.306;2023-04-30T10:51:01;100930.66;;;8.42;100.00
41250;BME280;26984;59.928;30.306;2023-04-30T10:53:30;100943.94;;;8.28;100.00
41250;BME280;26984;59.928;30.306;2023-04-30T10:56:00;100939.34;;;8.22;100.00
41250;BME280;26984;59.928;30.306;2023-04-30T10:58:32;100938.06;;;8.18;100.00
41250;BME280;26984;59.928;30.306;2023-04-30T11:01:09;100934.88;;;8.29;100.00
41250;BME280;26984;59.928;30.306;2023-04-30T11:03:42;100945.03;;;8.34;100.00
41250;BME280;26984;59.928;30.306;2023-04-30T11:06:11;100956.59;;;8.34;100.00
41250;BME280;26984;59.928;30.306;2023-04-30T11:08:42;100933.03;;;8.30;100.00
41250;BME280;26984;59.928;30.306;2023-04-30T11:11:11;100948.81;;;8.39;100.00
41250;BME280;26984;59.928;30.306;2023-04-30T11:13:44;100944.59;;;8.30;100.00
41250;BME280;26984;59.928;30.306;2023-04-30T11:16:14;100955.38;;;8.37;100.00
41250;BME280;26984;59.928;30.306;2023-04-30T11:18:43;100955.50;;;8.29;100.00
41250;BME280;26984;59.928;30.306;2023-04-30T11:21:11;100959.59;;;8.25;100.00
41250;BME280;26984;59.928;30.306;2023-04-30T11:23:42;100960.25;;;8.48;100.00
41250;BME280;26984;59.928;30.306;2023-04-30T11:26:10;100970.66;;;8.36;100.00
41250;BME280;26984;59.928;30.306;2023-04-30T11:28:49;100973.53;;;8.35;100.00
41250;BME280;26984;59.928;30.306;2023-04-30T11:31:19;100975.13;;;8.29;100.00
41250;BME280;26984;59.928;30.306;2023-04-30T11:33:48;100973.53;;;8.35;100.00
41250;BME280;26984;59.928;30.306;2023-04-30T11:36:18;100975.84;;;8.38;100.00
41250;BME280;26984;59.928;30.306;2023-04-30T11:38:46;100970.31;;;8.39;100.00
41250;BME280;26984;59.928;30.306;2023-04-30T11:41:14;100971.38;;;8.45;100.00
41250;BME280;26984;59.928;30.306;2023-04-30T11:43:42;100980.75;;;8.56;100.00
41250;BME280;26984;59.928;30.306;2023-04-30T11:46:10;100967.09;;;8.79;100.00
41250;BME280;26984;59.928;30.306;2023-04-30T11:48:42;100967.81;;;8.66;100.00
41250;BME280;26984;59.928;30.306;2023-04-30T11:51:15;100972.81;;;8.69;100.00
41250;BME280;26984;59.928;30.306;2023-04-30T11:53:45;100973.69;;;8.76;100.00
41250;BME280;26984;59.928;30.306;2023-04-30T11:56:16;100961.50;;;8.80;100.00
41250;BME280;26984;59.928;30.306;2023-04-30T11:58:46;100965.84;;;8.81;100.00
41250;BME280;26984;59.928;30.306;2023-04-30T12:01:14;100968.97;;;8.85;100.00
41250;BME280;26984;59.928;30.306;2023-04-30T12:03:46;100963.03;;;8.90;100.00
41250;BME280;26984;59.928;30.306;2023-04-30T12:06:21;100973.22;;;9.01;100.00
41250;BME280;26984;59.928;30.306;2023-04-30T12:08:51;100971.34;;;9.01;100.00
41250;BME280;26984;59.928;30.306;2023-04-30T12:11:20;100962.69;;;9.06;100.00
41250;BME280;26984;59.928;30.306;2023-04-30T12:13:51;100942.63;;;9.02;100.00
41250;BME280;26984;59.928;30.306;2023-04-30T12:16:20;100972.34;;;9.35;100.00
41250;BME280;26984;59.928;30.306;2023-04-30T12:18:49;100972.03;;;9.58;100.00
41250;BME280;26984;59.928;30.306;2023-04-30T12:21:16;100952.00;;;9.61;100.00
41250;BME280;26984;59.928;30.306;2023-04-30T12:23:45;100956.81;;;9.78;100.00
41250;BME280;26984;59.928;30.306;2023-04-30T12:26:14;100940.28;;;10.01;100.00
41250;BME280;26984;59.928;30.306;2023-04-30T12:28:41;100950.91;;;10.36;100.00
41250;BME280;26984;59.928;30.306;2023-04-30T12:31:09;100945.09;;;10.39;100.00
41250;BME280;26984;59.928;30.306;2023-04-30T12:33:37;100944.88;;;10.34;100.00
41250;BME280;26984;59.928;30.306;2023-04-30T12:36:10;100949.63;;;10.45;100.00
41250;BME280;26984;59.928;30.306;2023-04-30T12:38:41;100953.38;;;10.51;100.00
41250;BME280;26984;59.928;30.306;2023-04-30T12:41:10;100957.53;;;10.47;100.00
41250;BME280;26984;59.928;30.306;2023-04-30T12:43:40;100948.81;;;10.45;100.00
41250;BME280;26984;59.928;30.306;2023-04-30T12:46:08;100942.59;;;10.58;100.00
41250;BME280;26984;59.928;30.306;2023-04-30T12:48:43;100934.94;;;10.68;100.00
41250;BME280;26984;59.928;30.306;2023-04-30T12:51:18;100949.41;;;10.87;100.00
41250;BME280;26984;59.928;30.306;2023-04-30T12:53:46;100952.91;;;10.87;100.00